Time;durP1;ratioP1;P1;durP2;ratioP2;P2;SDS_P1;SDS_P2;PMS_P1;PMS_P2;Temp;Humidity;BMP_temperature;BMP_pressure;BME280_temperature;BME280_humidity;BME280_pressure;Samples;Min_cycle;Max_cycle;Signal;HPM_P1;HPM_P2
2022/12/03 00:00:16;;;;;;;83.32;40.53;;;0.80;99.90;;;;;;5050048;27;20078;-53
2022/12/03 00:02:41;;;;;;;75.35;38.58;;;0.80;99.90;;;;;;5050203;27;20407;-53
2022/12/03 00:05:08;;;;;;;81.00;40.80;;;0.80;99.90;;;;;;5049901;27;20392;-51
2022/12/03 00:07:33;;;;;;;79.93;40.45;;;0.90;99.90;;;;;;5049969;28;20025;-55
2022/12/03 00:09:59;;;;;;;86.07;41.72;;;0.80;99.90;;;;;;5049746;27;20391;-50
2022/12/03 00:12:25;;;;;;;86.05;42.25;;;0.80;99.90;;;;;;5049795;27;20468;-55
2022/12/03 00:14:50;;;;;;;82.70;40.97;;;0.80;99.90;;;;;;5049675;28;20120;-52
2022/12/03 00:17:16;;;;;;;85.93;40.42;;;0.70;99.90;;;;;;5050017;27;20029;-53
2022/12/03 00:19:42;;;;;;;79.82;38.58;;;0.70;99.90;;;;;;5049796;27;20029;-51
2022/12/03 00:22:07;;;;;;;78.35;39.55;;;0.70;99.90;;;;;;5049472;27;20135;-54
2022/12/03 00:24:33;;;;;;;76.10;39.50;;;0.70;99.90;;;;;;5049657;27;20064;-53
2022/12/03 00:26:58;;;;;;;88.88;40.22;;;0.80;99.90;;;;;;5049438;27;20070;-53
2022/12/03 00:29:24;;;;;;;78.22;38.80;;;0.70;99.90;;;;;;5049678;27;20078;-51
2022/12/03 00:31:50;;;;;;;72.32;36.13;;;0.70;99.90;;;;;;5049374;28;20032;-55
2022/12/03 00:34:15;;;;;;;73.10;37.28;;;0.80;99.90;;;;;;5049533;28;20078;-53
2022/12/03 00:36:41;;;;;;;76.05;37.17;;;0.70;99.90;;;;;;5049653;27;20040;-54
2022/12/03 00:39:07;;;;;;;74.25;36.95;;;0.70;99.90;;;;;;5082544;27;20076;-54
2022/12/03 00:41:32;;;;;;;88.68;39.75;;;0.70;99.90;;;;;;5133443;27;20053;-53
2022/12/03 00:43:58;;;;;;;82.80;39.42;;;0.80;99.90;;;;;;5133385;27;20039;-54
2022/12/03 00:46:24;;;;;;;85.30;37.42;;;0.70;99.90;;;;;;5133027;27;20020;-54
2022/12/03 00:48:50;;;;;;;94.68;38.30;;;0.70;99.90;;;;;;5133295;27;20031;-55
2022/12/03 00:51:15;;;;;;;79.15;37.17;;;0.70;99.90;;;;;;5133395;27;20465;-53
2022/12/03 00:53:41;;;;;;;82.78;38.83;;;0.80;99.90;;;;;;5133269;27;20030;-50
2022/12/03 00:56:07;;;;;;;84.95;38.55;;;0.70;99.90;;;;;;5133106;27;20019;-50
2022/12/03 00:58:32;;;;;;;75.20;36.08;;;0.70;99.90;;;;;;5133197;27;20110;-54
2022/12/03 01:00:58;;;;;;;75.05;37.25;;;0.70;99.90;;;;;;5133130;27;20023;-56
2022/12/03 01:03:24;;;;;;;85.68;36.70;;;0.70;99.90;;;;;;5133101;27;20030;-52
2022/12/03 01:05:49;;;;;;;87.00;36.97;;;0.70;99.90;;;;;;5132885;27;20429;-52
2022/12/03 01:08:15;;;;;;;97.30;37.88;;;0.70;99.90;;;;;;5132966;27;20023;-55
2022/12/03 01:10:41;;;;;;;148.48;38.38;;;0.70;99.90;;;;;;5132693;27;20042;-54
2022/12/03 01:13:06;;;;;;;76.03;39.10;;;0.60;99.90;;;;;;5132993;27;20038;-53
2022/12/03 01:15:32;;;;;;;62.08;32.38;;;0.60;99.90;;;;;;5132811;27;20019;-53
2022/12/03 01:17:58;;;;;;;78.43;36.05;;;0.70;99.90;;;;;;5132946;27;20126;-55
2022/12/03 01:20:23;;;;;;;80.85;35.90;;;0.60;99.90;;;;;;5132833;27;20354;-54
2022/12/03 01:22:49;;;;;;;94.65;34.72;;;0.60;99.90;;;;;;5132441;27;20035;-56
2022/12/03 01:25:15;;;;;;;70.03;34.78;;;0.60;99.90;;;;;;5132834;27;20366;-53
2022/12/03 01:27:41;;;;;;;63.40;35.55;;;0.50;99.90;;;;;;5132763;27;20030;-55
2022/12/03 01:30:10;;;;;;;64.88;34.97;;;0.60;99.90;;;;;;5131420;27;20060;-53
2022/12/03 01:32:35;;;;;;;72.05;36.28;;;0.60;99.90;;;;;;5132693;27;20015;-53
2022/12/03 01:35:01;;;;;;;72.80;36.15;;;0.60;99.90;;;;;;5132419;27;20026;-56
2022/12/03 01:37:27;;;;;;;73.57;36.97;;;0.60;99.90;;;;;;5132615;27;20027;-52
2022/12/03 01:39:53;;;;;;;73.40;35.63;;;0.70;99.90;;;;;;5132415;27;20023;-55
2022/12/03 01:42:23;;;;;;;71.10;35.60;;;0.60;99.90;;;;;;5132496;27;20079;-53
2022/12/03 01:44:54;;;;;;;79.38;36.13;;;0.60;99.90;;;;;;5132389;27;20039;-53
2022/12/03 01:47:26;;;;;;;76.28;34.05;;;0.60;99.90;;;;;;5131261;27;20470;-55
2022/12/03 01:49:55;;;;;;;73.07;37.13;;;0.60;99.90;;;;;;5132384;27;20062;-55
2022/12/03 01:52:27;;;;;;;102.75;36.03;;;0.60;99.90;;;;;;5132546;27;20052;-53
2022/12/03 01:54:58;;;;;;;66.78;35.15;;;0.60;99.90;;;;;;5131085;27;20027;-53
2022/12/03 01:57:24;;;;;;;64.85;34.28;;;0.60;99.90;;;;;;5132385;27;20015;-51
2022/12/03 01:59:51;;;;;;;63.97;32.42;;;0.60;99.90;;;;;;5135015;27;20024;-54
2022/12/03 02:02:37;;;;;;;69.22;31.90;;;0.60;99.90;;;;;;5136741;27;20023;-52
2022/12/03 02:05:13;;;;;;;71.20;35.08;;;0.60;99.90;;;;;;5136360;27;20466;-55
2022/12/03 02:07:39;;;;;;;62.38;32.45;;;0.70;99.90;;;;;;5135308;27;20023;-54
2022/12/03 02:10:05;;;;;;;72.43;34.92;;;0.60;99.90;;;;;;5136370;27;20168;-52
2022/12/03 02:12:36;;;;;;;70.70;33.63;;;0.60;99.90;;;;;;5136467;27;20031;-51
2022/12/03 02:15:04;;;;;;;71.72;35.22;;;0.60;99.90;;;;;;5136199;27;20026;-53
2022/12/03 02:17:30;;;;;;;74.18;36.38;;;0.50;99.90;;;;;;5136294;27;20015;-50
2022/12/03 02:19:56;;;;;;;73.88;34.15;;;0.50;99.90;;;;;;5134873;27;20064;-52
2022/12/03 02:22:45;;;;;;;67.38;33.95;;;0.60;99.90;;;;;;5136431;27;20395;-54
2022/12/03 02:25:32;;;;;;;72.78;35.53;;;0.50;99.90;;;;;;5136050;27;20068;-54
2022/12/03 02:27:59;;;;;;;59.13;30.60;;;0.60;99.90;;;;;;5135992;27;20034;-52
2022/12/03 02:30:28;;;;;;;62.42;33.63;;;0.60;99.90;;;;;;5136223;27;20027;-53
2022/12/03 02:32:54;;;;;;;59.60;33.85;;;0.60;99.90;;;;;;5135859;27;20037;-52
2022/12/03 02:35:23;;;;;;;59.08;30.38;;;0.70;99.90;;;;;;5135977;27;20098;-55
2022/12/03 02:38:02;;;;;;;61.72;31.48;;;0.70;99.90;;;;;;5135754;27;20403;-53
2022/12/03 02:40:31;;;;;;;65.53;32.28;;;0.60;99.90;;;;;;5136050;27;20371;-55
2022/12/03 02:43:00;;;;;;;63.65;30.88;;;0.60;99.90;;;;;;5134321;27;20106;-54
2022/12/03 02:45:45;;;;;;;70.10;32.33;;;0.60;99.90;;;;;;5135762;27;20076;-53
2022/12/03 02:48:16;;;;;;;65.07;32.42;;;0.60;99.90;;;;;;5135553;27;20019;-55
2022/12/03 02:50:50;;;;;;;58.30;30.38;;;0.70;99.90;;;;;;5134468;27;20027;-52
2022/12/03 02:53:25;;;;;;;62.42;32.72;;;0.70;99.90;;;;;;5135693;27;20031;-54
2022/12/03 02:55:51;;;;;;;59.83;30.63;;;0.60;99.90;;;;;;5134163;27;20023;-52
2022/12/03 02:58:18;;;;;;;64.47;33.22;;;0.70;99.90;;;;;;5135788;27;20015;-51
2022/12/03 03:00:45;;;;;;;59.05;31.13;;;0.70;99.90;;;;;;5134113;27;20023;-52
2022/12/03 03:03:11;;;;;;;57.35;31.40;;;0.70;99.90;;;;;;5135315;27;20522;-54
2022/12/03 03:05:39;;;;;;;61.88;30.88;;;0.70;99.90;;;;;;5135692;27;20034;-50
2022/12/03 03:08:07;;;;;;;60.30;30.23;;;0.70;99.90;;;;;;5135041;27;20019;-56
2022/12/03 03:10:36;;;;;;;58.10;30.75;;;0.70;99.90;;;;;;5134371;27;20039;-52
2022/12/03 03:13:06;;;;;;;53.30;29.33;;;0.70;99.90;;;;;;5134422;27;20023;-53
2022/12/03 03:15:32;;;;;;;64.13;30.85;;;0.70;99.90;;;;;;5134637;27;20351;-56
2022/12/03 03:17:57;;;;;;;60.08;30.80;;;0.70;99.90;;;;;;5134455;27;20049;-52
2022/12/03 03:20:23;;;;;;;57.97;27.60;;;0.80;99.90;;;;;;5134328;27;20369;-52
2022/12/03 03:22:48;;;;;;;60.08;30.48;;;0.80;99.90;;;;;;5134001;27;20026;-54
2022/12/03 03:25:19;;;;;;;61.60;31.45;;;0.80;99.90;;;;;;5134302;27;20024;-55
2022/12/03 03:27:45;;;;;;;57.15;31.58;;;0.80;99.90;;;;;;5134875;27;20053;-52
2022/12/03 03:30:13;;;;;;;57.92;30.27;;;0.80;99.90;;;;;;5134872;27;20019;-52
2022/12/03 03:32:39;;;;;;;62.28;30.17;;;0.80;99.90;;;;;;5134836;27;20347;-52
2022/12/03 03:35:06;;;;;;;59.20;29.73;;;0.80;99.90;;;;;;5134875;27;20030;-56
2022/12/03 03:37:32;;;;;;;51.25;28.40;;;0.80;99.90;;;;;;5134844;27;20031;-53
2022/12/03 03:39:58;;;;;;;57.58;30.02;;;0.80;99.90;;;;;;5134645;27;20374;-55
2022/12/03 03:42:24;;;;;;;53.78;28.40;;;0.90;99.90;;;;;;5134718;27;20020;-51
2022/12/03 03:44:50;;;;;;;57.67;30.42;;;0.80;99.90;;;;;;5134551;27;20484;-51
2022/12/03 03:47:17;;;;;;;56.97;30.98;;;0.80;99.90;;;;;;5134505;27;20027;-51
2022/12/03 03:49:43;;;;;;;64.45;31.08;;;0.80;99.90;;;;;;5134601;27;20488;-53
2022/12/03 03:52:10;;;;;;;49.60;27.80;;;0.80;99.90;;;;;;5134580;27;20053;-53
2022/12/03 03:54:38;;;;;;;53.92;30.52;;;0.80;99.90;;;;;;5134392;27;20027;-52
2022/12/03 03:57:03;;;;;;;54.15;31.42;;;0.80;99.90;;;;;;5132933;27;20114;-52
2022/12/03 03:59:29;;;;;;;54.75;27.75;;;0.70;99.90;;;;;;5134455;27;20107;-54
2022/12/03 04:01:55;;;;;;;65.72;33.05;;;0.70;99.90;;;;;;5134254;27;20046;-54
2022/12/03 04:04:23;;;;;;;64.57;32.45;;;0.70;99.90;;;;;;5134397;27;20027;-53
2022/12/03 04:06:49;;;;;;;60.45;31.15;;;0.70;99.90;;;;;;5133926;27;20552;-51
2022/12/03 04:09:14;;;;;;;55.00;30.98;;;0.70;99.90;;;;;;5133964;27;20106;-52
2022/12/03 04:14:24;;;;;;;64.40;32.25;;;0.70;99.90;;;;;;5134153;27;20080;-51
2022/12/03 04:16:50;;;;;;;63.72;31.35;;;0.80;99.90;;;;;;5134010;27;20011;-52
2022/12/03 04:19:16;;;;;;;63.72;32.42;;;0.80;99.90;;;;;;5134018;27;20026;-55
2022/12/03 04:24:26;;;;;;;60.45;31.88;;;0.80;99.90;;;;;;5134288;27;20077;-51
2022/12/03 04:29:36;;;;;;;55.22;30.15;;;0.80;99.90;;;;;;5133799;27;20058;-51
2022/12/03 04:37:29;;;;;;;62.85;32.35;;;0.70;99.90;;;;;;5133800;27;20477;-53
2022/12/03 04:39:55;;;;;;;65.47;31.77;;;0.70;99.90;;;;;;5133500;27;20015;-52
2022/12/03 04:42:21;;;;;;;60.45;31.58;;;0.70;99.90;;;;;;5133602;27;20079;-52
2022/12/03 04:44:47;;;;;;;66.40;31.15;;;0.70;99.90;;;;;;5133295;27;20023;-54
2022/12/03 04:47:18;;;;;;;68.35;31.95;;;0.80;99.90;;;;;;5133479;27;20027;-51
2022/12/03 04:49:46;;;;;;;62.80;31.23;;;0.70;99.90;;;;;;5132164;27;20084;-53
2022/12/03 04:52:14;;;;;;;64.15;32.72;;;0.70;99.90;;;;;;5133487;27;20109;-55
2022/12/03 04:54:41;;;;;;;58.15;29.88;;;0.70;99.90;;;;;;5133101;27;20031;-51
2022/12/03 04:57:07;;;;;;;63.50;30.42;;;0.80;99.90;;;;;;5133244;27;20386;-52
2022/12/03 04:59:33;;;;;;;59.20;30.52;;;0.80;99.90;;;;;;5133235;27;20019;-52
2022/12/03 05:01:59;;;;;;;65.72;32.05;;;0.70;99.90;;;;;;5133020;27;20030;-51
2022/12/03 05:04:25;;;;;;;61.80;31.38;;;0.70;99.90;;;;;;5133217;27;20023;-51
2022/12/03 05:06:50;;;;;;;58.70;29.60;;;0.80;99.90;;;;;;5131592;27;20050;-56
2022/12/03 05:09:16;;;;;;;58.47;27.65;;;0.80;99.90;;;;;;5131667;27;20366;-50
2022/12/03 05:11:47;;;;;;;58.53;28.70;;;0.80;99.90;;;;;;5133039;27;20423;-56
2022/12/03 05:14:13;;;;;;;59.80;28.67;;;0.70;99.90;;;;;;5132971;27;20035;-52
2022/12/03 05:16:39;;;;;;;66.10;30.35;;;0.70;99.90;;;;;;5133063;27;20019;-51
2022/12/03 05:19:06;;;;;;;57.95;27.80;;;0.80;99.90;;;;;;5132812;27;20059;-55
2022/12/03 05:21:32;;;;;;;55.65;29.38;;;0.80;99.90;;;;;;5132902;27;20015;-55
2022/12/03 05:23:58;;;;;;;58.60;29.90;;;0.80;99.90;;;;;;5132868;27;20402;-51
2022/12/03 05:26:23;;;;;;;51.40;26.83;;;0.80;99.90;;;;;;5132694;27;20066;-56
2022/12/03 05:28:49;;;;;;;51.35;27.70;;;0.80;99.90;;;;;;5132655;27;20521;-54
2022/12/03 05:31:15;;;;;;;56.53;30.08;;;0.80;99.90;;;;;;5132823;27;20350;-51
2022/12/03 05:33:41;;;;;;;45.47;23.70;;;0.80;99.90;;;;;;5131706;27;20023;-56
2022/12/03 05:36:07;;;;;;;46.83;26.38;;;0.80;99.90;;;;;;5132739;27;20195;-53
2022/12/03 05:38:33;;;;;;;47.10;26.20;;;0.80;99.90;;;;;;5131325;27;20065;-54
2022/12/03 05:40:58;;;;;;;50.50;26.98;;;0.80;99.90;;;;;;5132430;27;20102;-53
2022/12/03 05:43:24;;;;;;;43.60;24.80;;;0.80;99.90;;;;;;5132727;27;20373;-54
2022/12/03 05:45:50;;;;;;;49.10;26.23;;;0.80;99.90;;;;;;5132512;27;20522;-56
2022/12/03 05:48:16;;;;;;;48.38;25.98;;;0.80;99.90;;;;;;5132469;27;20068;-53
2022/12/03 05:50:43;;;;;;;50.75;26.33;;;0.80;99.90;;;;;;5131352;27;20035;-56
2022/12/03 05:53:12;;;;;;;45.33;24.35;;;0.80;99.90;;;;;;5132353;27;20031;-55
2022/12/03 05:55:38;;;;;;;47.88;24.52;;;0.80;99.90;;;;;;5132436;27;20019;-56
2022/12/03 05:58:04;;;;;;;47.08;24.80;;;0.80;99.90;;;;;;5132387;27;20028;-55
2022/12/03 06:00:32;;;;;;;106.93;43.15;;;0.70;99.90;;;;;;5132285;27;20015;-55
2022/12/03 06:02:58;;;;;;;64.45;31.45;;;0.70;99.90;;;;;;5132371;27;20034;-53
2022/12/03 06:05:24;;;;;;;41.05;23.83;;;0.70;99.90;;;;;;5132294;27;20019;-54
2022/12/03 06:07:51;;;;;;;43.53;23.85;;;0.70;99.90;;;;;;5130949;27;20254;-55
2022/12/03 06:10:20;;;;;;;47.97;26.95;;;0.70;99.90;;;;;;5132241;27;20562;-53
2022/12/03 06:12:46;;;;;;;48.65;26.05;;;0.70;99.90;;;;;;5132227;27;20064;-53
2022/12/03 06:15:13;;;;;;;63.58;34.17;;;0.70;99.90;;;;;;5132060;27;20023;-51
2022/12/03 06:17:39;;;;;;;44.10;24.55;;;0.70;99.90;;;;;;5132368;27;20053;-52
2022/12/03 06:20:05;;;;;;;35.08;22.27;;;0.70;99.90;;;;;;5132102;27;20602;-51
2022/12/03 06:22:31;;;;;;;36.88;21.50;;;0.70;99.90;;;;;;5132126;27;20023;-54
2022/12/03 06:24:57;;;;;;;40.88;23.88;;;0.70;99.90;;;;;;5132075;27;20015;-54
2022/12/03 06:27:22;;;;;;;43.65;23.65;;;0.70;99.90;;;;;;5132007;27;20034;-54
2022/12/03 06:29:48;;;;;;;44.53;24.10;;;0.60;99.90;;;;;;5132048;27;20027;-56
2022/12/03 06:32:14;;;;;;;42.75;23.25;;;0.60;99.90;;;;;;5132238;27;20023;-56
2022/12/03 06:34:39;;;;;;;42.63;24.00;;;0.50;99.90;;;;;;5132022;27;20023;-52
2022/12/03 06:37:05;;;;;;;38.60;21.77;;;0.60;99.90;;;;;;5130708;27;20935;-55
2022/12/03 06:39:31;;;;;;;38.20;22.10;;;0.60;99.90;;;;;;5132121;27;20019;-52
2022/12/03 06:41:56;;;;;;;50.90;24.77;;;0.60;99.90;;;;;;5131868;27;20030;-52
2022/12/03 06:44:22;;;;;;;49.47;24.05;;;0.50;99.90;;;;;;5132576;27;20055;-53
2022/12/03 06:46:48;;;;;;;45.35;23.35;;;0.50;99.90;;;;;;5135754;27;20065;-53
2022/12/03 06:49:13;;;;;;;42.47;24.45;;;0.50;99.90;;;;;;5135762;27;20500;-54
2022/12/03 06:51:39;;;;;;;44.25;24.00;;;0.50;99.90;;;;;;5135886;27;20027;-53
2022/12/03 06:54:05;;;;;;;47.35;24.95;;;0.40;99.90;;;;;;5135318;27;20015;-55
2022/12/03 06:56:31;;;;;;;41.95;22.50;;;0.40;99.90;;;;;;5135848;27;20019;-54
2022/12/03 06:58:57;;;;;;;47.13;25.15;;;0.40;99.90;;;;;;5135502;27;20055;-55
2022/12/03 07:01:23;;;;;;;50.42;24.92;;;0.40;99.90;;;;;;5135597;27;20663;-54
2022/12/03 07:03:49;;;;;;;45.30;22.85;;;0.40;99.90;;;;;;5135354;27;20038;-54
2022/12/03 07:06:15;;;;;;;46.80;23.70;;;0.40;99.90;;;;;;5135515;27;20034;-52
2022/12/03 07:08:40;;;;;;;42.45;24.27;;;0.40;99.90;;;;;;5135396;27;20127;-53
2022/12/03 07:11:29;;;;;;;44.35;23.95;;;0.50;99.90;;;;;;5134822;27;20126;-53
2022/12/03 07:13:55;;;;;;;44.92;22.15;;;0.40;99.90;;;;;;5134942;27;20057;-56
2022/12/03 07:16:21;;;;;;;41.42;22.20;;;0.40;99.90;;;;;;5135272;27;20073;-54
2022/12/03 07:18:47;;;;;;;47.03;23.58;;;0.50;99.90;;;;;;5135039;27;20050;-56
2022/12/03 07:21:12;;;;;;;43.05;22.33;;;0.40;99.90;;;;;;5135094;27;20072;-51
2022/12/03 07:23:38;;;;;;;45.08;21.92;;;0.40;99.90;;;;;;5134951;27;20384;-54
2022/12/03 07:26:04;;;;;;;43.58;22.42;;;0.40;99.90;;;;;;5134744;27;20056;-51
2022/12/03 07:28:29;;;;;;;44.65;22.40;;;0.50;99.90;;;;;;5134668;27;20110;-52
2022/12/03 07:30:55;;;;;;;46.03;21.98;;;0.50;99.90;;;;;;5134574;27;20054;-52
2022/12/03 07:33:21;;;;;;;42.33;21.92;;;0.50;99.90;;;;;;5134612;27;20031;-52
2022/12/03 07:35:46;;;;;;;34.80;19.83;;;0.50;99.90;;;;;;5134747;27;20027;-56
2022/12/03 07:38:12;;;;;;;39.80;21.52;;;0.50;99.90;;;;;;5134803;27;20079;-51
2022/12/03 07:40:37;;;;;;;41.28;22.98;;;0.50;99.90;;;;;;5134828;27;20115;-52
2022/12/03 07:43:03;;;;;;;38.53;20.80;;;0.50;99.90;;;;;;5134772;27;20458;-51
2022/12/03 07:45:29;;;;;;;40.10;22.90;;;0.40;99.90;;;;;;5134857;27;20044;-56
2022/12/03 07:47:54;;;;;;;45.70;23.02;;;0.50;99.90;;;;;;5134452;27;20075;-51
2022/12/03 07:50:20;;;;;;;44.92;23.15;;;0.50;99.90;;;;;;5134409;27;20038;-52
2022/12/03 07:52:46;;;;;;;43.80;22.35;;;0.40;99.90;;;;;;5133897;27;20015;-54
2022/12/03 07:55:12;;;;;;;94.10;52.22;;;0.50;99.90;;;;;;5133003;27;20438;-51
2022/12/03 07:57:38;;;;;;;48.95;30.42;;;0.40;99.90;;;;;;5132474;27;20015;-51
2022/12/03 08:00:04;;;;;;;101.05;60.50;;;0.50;99.90;;;;;;5133088;27;20392;-53
2022/12/03 08:02:30;;;;;;;104.53;64.00;;;0.40;99.90;;;;;;5133367;27;20035;-53
2022/12/03 08:04:56;;;;;;;74.20;36.22;;;0.50;99.90;;;;;;5132753;27;20031;-51
2022/12/03 08:07:22;;;;;;;52.47;27.67;;;0.50;99.90;;;;;;5133104;27;20031;-53
2022/12/03 08:09:49;;;;;;;45.95;23.92;;;0.50;99.90;;;;;;5131495;27;20119;-50
2022/12/03 08:12:24;;;;;;;56.42;30.30;;;0.50;99.90;;;;;;5133046;27;20371;-49
2022/12/03 08:14:49;;;;;;;50.40;26.65;;;0.50;99.90;;;;;;5132835;27;20053;-50
2022/12/03 08:17:17;;;;;;;56.88;27.50;;;0.50;99.90;;;;;;5132893;27;20019;-51
2022/12/03 08:19:46;;;;;;;51.72;28.23;;;0.40;99.90;;;;;;5132846;27;20064;-52
2022/12/03 08:22:13;;;;;;;185.93;105.53;;;0.40;99.90;;;;;;5132605;27;20054;-54
2022/12/03 08:24:39;;;;;;;95.13;65.63;;;0.50;99.90;;;;;;5132879;27;20042;-54
2022/12/03 08:27:16;;;;;;;56.75;35.08;;;0.50;99.90;;;;;;5132533;27;20061;-53
2022/12/03 08:29:41;;;;;;;66.30;33.30;;;0.50;99.90;;;;;;5131391;27;20474;-53
2022/12/03 08:32:10;;;;;;;52.30;30.02;;;0.60;99.90;;;;;;5131082;27;20076;-50
2022/12/03 08:34:41;;;;;;;45.15;27.05;;;0.60;99.90;;;;;;5132468;27;20474;-50
2022/12/03 08:37:17;;;;;;;48.55;28.00;;;0.60;99.90;;;;;;5131308;27;20438;-49
2022/12/03 08:39:45;;;;;;;49.25;27.08;;;0.60;99.90;;;;;;5132537;27;20502;-50
2022/12/03 08:45:27;;;;;;;60.50;32.35;;;0.60;99.90;;;;;;5132194;27;20443;-54
2022/12/03 08:47:56;;;;;;;104.40;56.63;;;0.60;99.90;;;;;;5132240;27;20027;-50
2022/12/03 08:50:26;;;;;;;73.88;39.72;;;0.60;99.90;;;;;;5132316;27;20387;-53
2022/12/03 08:52:53;;;;;;;144.30;65.88;;;0.70;99.90;;;;;;5131926;27;20023;-51
2022/12/03 08:55:35;;;;;;;107.82;57.83;;;0.70;99.90;;;;;;5132115;27;20027;-52
2022/12/03 08:58:21;;;;;;;76.68;40.08;;;0.80;99.90;;;;;;5132026;27;20023;-54
2022/12/03 09:00:55;;;;;;;65.55;33.78;;;0.70;99.90;;;;;;5131993;27;20043;-55
2022/12/03 09:03:21;;;;;;;69.00;37.60;;;0.70;99.90;;;;;;5132104;27;20026;-51
2022/12/03 09:05:47;;;;;;;61.88;34.50;;;0.70;99.90;;;;;;5131937;27;20023;-54
2022/12/03 09:08:12;;;;;;;60.63;31.70;;;0.60;99.90;;;;;;5131975;27;20054;-53
2022/12/03 09:10:38;;;;;;;53.78;27.02;;;0.70;99.90;;;;;;5131716;27;20075;-56
2022/12/03 09:13:03;;;;;;;54.78;27.95;;;0.70;99.90;;;;;;5131630;27;20537;-54
2022/12/03 09:15:29;;;;;;;52.70;28.70;;;0.70;99.90;;;;;;5131821;27;20103;-52
2022/12/03 09:17:55;;;;;;;53.03;26.67;;;0.70;99.90;;;;;;5131553;27;20053;-51
2022/12/03 09:20:20;;;;;;;43.55;24.85;;;0.80;99.90;;;;;;5132559;27;20030;-52
2022/12/03 09:22:46;;;;;;;59.13;32.88;;;0.80;99.90;;;;;;5132576;27;20027;-54
2022/12/03 09:25:12;;;;;;;53.42;25.10;;;0.90;99.90;;;;;;5130968;27;20110;-52
2022/12/03 09:27:37;;;;;;;47.13;26.08;;;0.90;99.90;;;;;;5132616;27;20023;-55
2022/12/03 09:30:04;;;;;;;47.42;24.42;;;0.90;99.90;;;;;;5132613;27;20091;-54
2022/12/03 09:32:30;;;;;;;45.20;24.30;;;0.70;99.90;;;;;;5131436;27;20023;-52
2022/12/03 09:34:56;;;;;;;51.35;25.13;;;0.80;99.90;;;;;;5132450;27;20102;-51
2022/12/03 09:37:21;;;;;;;51.47;26.10;;;0.80;99.90;;;;;;5132752;27;20031;-56
2022/12/03 09:39:47;;;;;;;60.28;31.20;;;0.80;99.90;;;;;;5132400;27;20102;-55
2022/12/03 09:42:14;;;;;;;57.72;30.33;;;0.80;99.90;;;;;;5117722;27;20021;-56
2022/12/03 09:44:39;;;;;;;55.40;27.35;;;0.90;99.90;;;;;;5048495;27;20029;-54
2022/12/03 09:47:06;;;;;;;50.83;27.00;;;0.90;99.90;;;;;;5060071;27;20033;-53
2022/12/03 09:49:34;;;;;;;51.13;26.63;;;0.90;99.90;;;;;;5152823;27;20430;-53
2022/12/03 09:52:01;;;;;;;53.17;29.45;;;0.90;99.90;;;;;;5150725;27;20477;-53
2022/12/03 09:54:28;;;;;;;72.00;34.67;;;1.00;99.90;;;;;;5152750;27;20026;-51
2022/12/03 09:56:57;;;;;;;70.65;36.58;;;1.00;99.90;;;;;;5151912;27;20015;-51
2022/12/03 09:59:26;;;;;;;80.90;38.33;;;1.00;99.90;;;;;;5153107;27;20019;-51
2022/12/03 10:01:53;;;;;;;204.40;107.43;;;1.10;99.90;;;;;;5152890;27;20019;-49
2022/12/03 10:04:19;;;;;;;107.82;53.70;;;1.10;99.90;;;;;;5152773;27;20027;-52
2022/12/03 10:06:45;;;;;;;232.75;93.10;;;1.10;99.90;;;;;;5153083;27;20022;-49
2022/12/03 10:09:13;;;;;;;81.53;39.60;;;1.10;99.90;;;;;;5151907;27;20026;-51
2022/12/03 10:11:39;;;;;;;96.05;39.60;;;1.00;99.90;;;;;;5152866;27;20386;-51
2022/12/03 10:14:05;;;;;;;92.35;49.80;;;1.00;99.90;;;;;;5151738;27;20034;-53
2022/12/03 10:16:32;;;;;;;127.20;63.78;;;1.00;99.90;;;;;;5151808;27;20667;-54
2022/12/03 10:19:00;;;;;;;195.50;104.28;;;1.10;99.90;;;;;;5151837;27;20038;-52
2022/12/03 10:21:30;;;;;;;79.68;36.53;;;1.00;99.90;;;;;;5156418;27;20095;-50
2022/12/03 10:24:41;;;;;;;91.75;45.38;;;1.00;99.90;;;;;;5155863;27;20038;-51
2022/12/03 10:27:42;;;;;;;79.28;38.30;;;1.10;99.90;;;;;;5152874;27;20042;-52
2022/12/03 10:30:18;;;;;;;69.95;36.95;;;1.10;99.90;;;;;;5092554;28;20071;-56
2022/12/03 10:32:46;;;;;;;65.32;34.65;;;1.10;99.90;;;;;;5146989;27;20415;-54
2022/12/03 10:35:35;;;;;;;54.00;31.20;;;1.10;99.90;;;;;;5156825;27;20022;-56
2022/12/03 10:38:06;;;;;;;62.47;29.58;;;1.10;99.90;;;;;;5155520;27;20482;-54
2022/12/03 10:40:37;;;;;;;101.72;49.22;;;1.10;99.90;;;;;;5156301;27;20022;-52
2022/12/03 10:43:20;;;;;;;68.82;35.30;;;1.10;99.90;;;;;;5155492;27;20058;-52
2022/12/03 10:45:49;;;;;;;58.25;28.70;;;1.20;99.90;;;;;;5156467;27;20023;-55
2022/12/03 10:48:25;;;;;;;56.80;27.73;;;1.20;99.90;;;;;;5155499;27;20027;-53
2022/12/03 10:50:59;;;;;;;79.25;33.40;;;1.10;99.90;;;;;;5156181;27;20119;-55
2022/12/03 10:53:28;;;;;;;102.07;54.38;;;1.10;99.90;;;;;;5156097;27;20508;-53
2022/12/03 10:55:58;;;;;;;102.80;50.05;;;1.20;99.90;;;;;;5156104;27;20105;-54
2022/12/03 10:58:34;;;;;;;129.70;57.55;;;1.20;99.90;;;;;;5156557;27;20075;-53
2022/12/03 11:01:04;;;;;;;97.45;43.92;;;1.10;99.90;;;;;;5156285;27;20018;-53
2022/12/03 11:03:34;;;;;;;136.65;39.67;;;1.20;99.90;;;;;;5156343;27;20023;-57
2022/12/03 11:06:01;;;;;;;115.70;44.63;;;1.20;99.90;;;;;;5156015;27;20026;-52
2022/12/03 11:08:31;;;;;;;73.53;37.22;;;1.20;99.90;;;;;;5156278;27;20015;-55
2022/12/03 11:10:56;;;;;;;76.45;30.88;;;1.20;99.90;;;;;;5155930;27;20481;-56
2022/12/03 11:13:28;;;;;;;131.48;53.78;;;1.20;99.90;;;;;;5095279;27;20136;-55
2022/12/03 11:15:54;;;;;;;82.88;41.90;;;1.20;99.90;;;;;;5019442;28;20030;-56
2022/12/03 11:18:35;;;;;;;79.90;36.42;;;1.30;99.90;;;;;;5019960;28;20028;-53
2022/12/03 11:21:08;;;;;;;86.00;34.78;;;1.30;99.90;;;;;;5019927;28;20128;-51
2022/12/03 11:23:46;;;;;;;64.38;31.20;;;1.20;99.90;;;;;;5020191;28;20055;-56
2022/12/03 11:26:28;;;;;;;85.18;28.85;;;1.20;99.90;;;;;;5019407;28;20036;-55
2022/12/03 11:28:58;;;;;;;63.22;26.80;;;1.30;99.90;;;;;;5019853;28;20040;-53
2022/12/03 11:31:35;;;;;;;68.40;28.00;;;1.30;99.90;;;;;;5020411;28;20040;-53
2022/12/03 11:34:44;;;;;;;58.60;30.45;;;1.30;99.90;;;;;;5019941;28;20030;-54
2022/12/03 11:37:10;;;;;;;55.40;30.70;;;1.30;99.90;;;;;;5003501;28;20049;-55
2022/12/03 11:40:22;;;;;;;64.03;32.30;;;1.20;99.90;;;;;;5020167;28;22450;-53
2022/12/03 11:42:48;;;;;;;84.05;38.83;;;1.30;99.90;;;;;;5026581;28;20120;-54
2022/12/03 11:45:40;;;;;;;55.42;28.77;;;1.30;99.90;;;;;;5019352;28;20512;-56
2022/12/03 11:48:11;;;;;;;72.63;36.38;;;1.30;99.90;;;;;;5017026;28;20076;-52
2022/12/03 11:51:12;;;;;;;62.97;28.65;;;1.40;99.90;;;;;;5019919;28;20034;-52
2022/12/03 11:53:39;;;;;;;48.47;28.48;;;1.40;99.90;;;;;;5019471;28;20040;-52
2022/12/03 11:56:07;;;;;;;48.72;28.05;;;1.40;99.90;;;;;;5019607;28;20026;-55
2022/12/03 11:58:37;;;;;;;54.22;29.80;;;1.40;99.90;;;;;;5019554;28;20067;-56
2022/12/03 12:01:04;;;;;;;55.53;31.30;;;1.30;99.90;;;;;;5019285;28;20040;-52
2022/12/03 12:03:42;;;;;;;60.35;31.13;;;1.30;99.90;;;;;;5037887;28;22332;-55
2022/12/03 12:06:09;;;;;;;58.08;29.60;;;1.20;99.90;;;;;;5038157;28;20043;-54
2022/12/03 12:08:40;;;;;;;128.82;61.45;;;1.20;99.90;;;;;;5038638;27;20025;-54
2022/12/03 12:11:24;;;;;;;133.57;52.30;;;1.30;99.90;;;;;;5027754;28;20037;-50
2022/12/03 12:13:57;;;;;;;272.15;95.13;;;1.30;99.90;;;;;;5037114;28;20029;-54
2022/12/03 12:16:50;;;;;;;84.77;35.70;;;1.30;99.90;;;;;;5039274;27;20029;-54
2022/12/03 12:19:28;;;;;;;239.07;85.90;;;1.40;99.90;;;;;;5038115;27;20037;-57
2022/12/03 12:21:55;;;;;;;223.13;83.53;;;1.40;99.90;;;;;;5018972;28;20040;-58
2022/12/03 12:24:42;;;;;;;84.28;33.95;;;1.40;99.90;;;;;;5019153;28;20522;-51
2022/12/03 12:27:14;;;;;;;137.63;55.28;;;1.40;99.90;;;;;;5019110;28;20033;-51
2022/12/03 12:29:41;;;;;;;73.47;40.92;;;1.40;99.90;;;;;;5018959;28;20047;-51
2022/12/03 12:32:11;;;;;;;79.28;30.88;;;1.40;99.90;;;;;;5019197;28;20029;-55
2022/12/03 12:34:41;;;;;;;67.93;27.35;;;1.40;99.90;;;;;;5019292;28;20659;-57
2022/12/03 12:37:19;;;;;;;88.78;27.60;;;1.40;99.90;;;;;;5018754;28;20090;-52
2022/12/03 12:39:45;;;;;;;126.95;37.45;;;1.30;99.90;;;;;;5017326;28;20021;-57
2022/12/03 12:42:32;;;;;;;115.18;34.30;;;1.30;99.90;;;;;;5018421;28;20392;-57
2022/12/03 12:45:07;;;;;;;114.97;28.67;;;1.30;99.90;;;;;;5019188;28;20040;-56
2022/12/03 12:47:35;;;;;;;85.18;31.35;;;1.20;99.90;;;;;;5018088;28;20488;-54
2022/12/03 12:50:01;;;;;;;64.38;29.02;;;1.20;99.90;;;;;;5018860;28;20037;-54
2022/12/03 12:52:27;;;;;;;82.07;25.23;;;1.30;99.90;;;;;;5018997;28;20126;-57
2022/12/03 12:54:53;;;;;;;47.97;25.83;;;1.30;99.90;;;;;;5018287;28;20134;-57
2022/12/03 12:57:23;;;;;;;80.43;26.63;;;1.30;99.90;;;;;;5018623;28;20474;-51
2022/12/03 12:59:49;;;;;;;100.55;30.90;;;1.30;99.90;;;;;;5018983;28;20077;-56